sensor_id;sensor_type;location;lat;lon;timestamp;pressure;altitude;pressure_sealevel;temperature;humidity
5500;BME280;2772;42.700;23.304;2023-04-10T00:01:08;95240.09;;;10.17;100.00
5500;BME280;2772;42.700;23.304;2023-04-10T00:03:35;95241.69;;;10.05;100.00
5500;BME280;2772;42.700;23.304;2023-04-10T00:06:02;95241.63;;;10.10;100.00
5500;BME280;2772;42.700;23.304;2023-04-10T00:08:28;95245.34;;;10.09;100.00
5500;BME280;2772;42.700;23.304;2023-04-10T00:10:56;95241.13;;;10.08;100.00
5500;BME280;2772;42.700;23.304;2023-04-10T00:13:23;95243.06;;;10.16;100.00
5500;BME280;2772;42.700;23.304;2023-04-10T00:15:50;95242.28;;;10.15;100.00
5500;BME280;2772;42.700;23.304;2023-04-10T00:18:16;95235.19;;;10.11;100.00
5500;BME280;2772;42.700;23.304;2023-04-10T00:20:43;95240.72;;;10.14;100.00
5500;BME280;2772;42.700;23.304;2023-04-10T00:23:10;95229.66;;;10.21;100.00
5500;BME280;2772;42.700;23.304;2023-04-10T00:25:37;95234.97;;;10.21;100.00
5500;BME280;2772;42.700;23.304;2023-04-10T00:28:05;95230.16;;;10.09;100.00
5500;BME280;2772;42.700;23.304;2023-04-10T00:30:31;95223.34;;;10.17;100.00
5500;BME280;2772;42.700;23.304;2023-04-10T00:32:58;95230.72;;;10.20;100.00
5500;BME280;2772;42.700;23.304;2023-04-10T00:35:25;95230.06;;;10.14;100.00
5500;BME280;2772;42.700;23.304;2023-04-10T00:37:52;95229.34;;;10.22;100.00
5500;BME280;2772;42.700;23.304;2023-04-10T00:40:20;95236.34;;;10.18;100.00
5500;BME280;2772;42.700;23.304;2023-04-10T00:42:47;95231.53;;;10.20;100.00
5500;BME280;2772;42.700;23.304;2023-04-10T00:45:15;95233.97;;;10.30;100.00
5500;BME280;2772;42.700;23.304;2023-04-10T00:47:42;95236.34;;;10.18;100.00
5500;BME280;2772;42.700;23.304;2023-04-10T00:50:09;95236.84;;;10.20;100.00
5500;BME280;2772;42.700;23.304;2023-04-10T00:52:36;95235.50;;;10.09;100.00
5500;BME280;2772;42.700;23.304;2023-04-10T00:55:03;95230.06;;;10.01;100.00
5500;BME280;2772;42.700;23.304;2023-04-10T00:57:32;95234.91;;;9.99;100.00
5500;BME280;2772;42.700;23.304;2023-04-10T00:59:59;95230.06;;;10.01;100.00
5500;BME280;2772;42.700;23.304;2023-04-10T01:02:27;95224.94;;;10.04;100.00
5500;BME280;2772;42.700;23.304;2023-04-10T01:04:54;95232.34;;;10.07;100.00
5500;BME280;2772;42.700;23.304;2023-04-10T01:07:29;95219.03;;;10.07;100.00
5500;BME280;2772;42.700;23.304;2023-04-10T01:10:05;95213.97;;;10.06;100.00
5500;BME280;2772;42.700;23.304;2023-04-10T01:12:45;95211.44;;;10.14;100.00
5500;BME280;2772;42.700;23.304;2023-04-10T01:15:18;95202.06;;;10.17;100.00
5500;BME280;2772;42.700;23.304;2023-04-10T01:17:49;95209.06;;;9.99;100.00
5500;BME280;2772;42.700;23.304;2023-04-10T01:20:20;95201.69;;;10.10;100.00
5500;BME280;2772;42.700;23.304;2023-04-10T01:23:08;95206.63;;;10.16;100.00
5500;BME280;2772;42.700;23.304;2023-04-10T01:25:42;95210.22;;;10.20;100.00
5500;BME280;2772;42.700;23.304;2023-04-10T01:28:37;95201.00;;;10.18;100.00
5500;BME280;2772;42.700;23.304;2023-04-10T01:31:06;95190.19;;;10.23;100.00
5500;BME280;2772;42.700;23.304;2023-04-10T01:33:48;95196.44;;;10.18;100.00
5500;BME280;2772;42.700;23.304;2023-04-10T01:36:20;95195.97;;;10.16;100.00
5500;BME280;2772;42.700;23.304;2023-04-10T01:38:48;95187.44;;;10.28;100.00
5500;BME280;2772;42.700;23.304;2023-04-10T01:41:17;95197.88;;;10.24;100.00
5500;BME280;2772;42.700;23.304;2023-04-10T01:43:48;95199.38;;;10.30;100.00
5500;BME280;2772;42.700;23.304;2023-04-10T01:46:17;95197.31;;;10.27;100.00
5500;BME280;2772;42.700;23.304;2023-04-10T01:48:45;95201.03;;;10.26;100.00
5500;BME280;2772;42.700;23.304;2023-04-10T01:51:12;95202.13;;;10.25;100.00
5500;BME280;2772;42.700;23.304;2023-04-10T01:53:42;95196.03;;;10.25;100.00
5500;BME280;2772;42.700;23.304;2023-04-10T01:56:09;95199.66;;;10.29;100.00
5500;BME280;2772;42.700;23.304;2023-04-10T01:58:36;95201.53;;;10.28;100.00
5500;BME280;2772;42.700;23.304;2023-04-10T02:01:05;95194.91;;;10.26;100.00
5500;BME280;2772;42.700;23.304;2023-04-10T02:03:32;95205.56;;;10.26;100.00
5500;BME280;2772;42.700;23.304;2023-04-10T02:06:08;95199.38;;;10.30;100.00
5500;BME280;2772;42.700;23.304;2023-04-10T02:08:39;95194.75;;;10.22;100.00
5500;BME280;2772;42.700;23.304;2023-04-10T02:11:14;95182.09;;;10.28;100.00
5500;BME280;2772;42.700;23.304;2023-04-10T02:13:41;95181.81;;;10.29;100.00
5500;BME280;2772;42.700;23.304;2023-04-10T02:16:11;95173.34;;;10.27;100.00
5500;BME280;2772;42.700;23.304;2023-04-10T02:18:42;95173.19;;;10.10;100.00
5500;BME280;2772;42.700;23.304;2023-04-10T02:21:10;95178.81;;;10.09;100.00
5500;BME280;2772;42.700;23.304;2023-04-10T02:23:36;95169.34;;;10.16;100.00
5500;BME280;2772;42.700;23.304;2023-04-10T02:26:07;95170.72;;;10.14;100.00
5500;BME280;2772;42.700;23.304;2023-04-10T02:28:36;95174.69;;;10.16;100.00
5500;BME280;2772;42.700;23.304;2023-04-10T02:31:03;95177.16;;;10.13;100.00
5500;BME280;2772;42.700;23.304;2023-04-10T02:33:31;95167.75;;;10.15;100.00
5500;BME280;2772;42.700;23.304;2023-04-10T02:35:59;95168.38;;;10.12;100.00
5500;BME280;2772;42.700;23.304;2023-04-10T02:38:26;95164.16;;;10.11;100.00
5500;BME280;2772;42.700;23.304;2023-04-10T02:40:52;95162.31;;;10.20;100.00
5500;BME280;2772;42.700;23.304;2023-04-10T02:43:19;95158.56;;;10.21;100.00
5500;BME280;2772;42.700;23.304;2023-04-10T02:45:46;95158.88;;;10.20;100.00
5500;BME280;2772;42.700;23.304;2023-04-10T02:48:12;95154.34;;;10.20;100.00
5500;BME280;2772;42.700;23.304;2023-04-10T02:50:40;95164.81;;;10.17;100.00
5500;BME280;2772;42.700;23.304;2023-04-10T02:53:10;95152.44;;;9.99;100.00
5500;BME280;2772;42.700;23.304;2023-04-10T02:55:37;95146.41;;;9.93;100.00
5500;BME280;2772;42.700;23.304;2023-04-10T02:58:04;95146.78;;;9.78;100.00
5500;BME280;2772;42.700;23.304;2023-04-10T03:00:30;95148.13;;;9.89;100.00
5500;BME280;2772;42.700;23.304;2023-04-10T03:02:57;95150.19;;;9.92;100.00
5500;BME280;2772;42.700;23.304;2023-04-10T03:05:24;95142.59;;;9.86;100.00
5500;BME280;2772;42.700;23.304;2023-04-10T03:07:52;95150.94;;;9.71;100.00
5500;BME280;2772;42.700;23.304;2023-04-10T03:10:19;95141.94;;;9.44;100.00
5500;BME280;2772;42.700;23.304;2023-04-10T03:12:46;95140.84;;;9.45;100.00
5500;BME280;2772;42.700;23.304;2023-04-10T03:15:13;95145.63;;;9.57;100.00
5500;BME280;2772;42.700;23.304;2023-04-10T03:17:40;95147.06;;;9.41;100.00
5500;BME280;2772;42.700;23.304;2023-04-10T03:20:08;95148.63;;;9.42;100.00
5500;BME280;2772;42.700;23.304;2023-04-10T03:22:35;95150.91;;;9.35;100.00
5500;BME280;2772;42.700;23.304;2023-04-10T03:25:04;95147.56;;;9.16;100.00
5500;BME280;2772;42.700;23.304;2023-04-10T03:27:30;95153.94;;;9.28;100.00
5500;BME280;2772;42.700;23.304;2023-04-10T03:29:59;95146.97;;;9.19;100.00
5500;BME280;2772;42.700;23.304;2023-04-10T03:32:26;95148.44;;;9.11;100.00
5500;BME280;2772;42.700;23.304;2023-04-10T03:34:55;95151.00;;;9.03;100.00
5500;BME280;2772;42.700;23.304;2023-04-10T03:37:22;95147.25;;;8.90;100.00
5500;BME280;2772;42.700;23.304;2023-04-10T03:39:49;95147.53;;;8.89;100.00
5500;BME280;2772;42.700;23.304;2023-04-10T03:42:17;95150.91;;;8.94;100.00
5500;BME280;2772;42.700;23.304;2023-04-10T03:44:43;95150.69;;;8.91;100.00
5500;BME280;2772;42.700;23.304;2023-04-10T03:47:10;95149.91;;;8.77;100.00
5500;BME280;2772;42.700;23.304;2023-04-10T03:49:37;95151.97;;;8.80;100.00
5500;BME280;2772;42.700;23.304;2023-04-10T03:52:04;95151.25;;;8.61;100.00
5500;BME280;2772;42.700;23.304;2023-04-10T03:54:31;95139.06;;;8.60;100.00
5500;BME280;2772;42.700;23.304;2023-04-10T03:56:58;95144.06;;;8.61;100.00
5500;BME280;2772;42.700;23.304;2023-04-10T03:59:27;95147.47;;;8.48;100.00
5500;BME280;2772;42.700;23.304;2023-04-10T04:01:53;95148.50;;;8.66;100.00
5500;BME280;2772;42.700;23.304;2023-04-10T04:04:20;95153.22;;;8.69;100.00
5500;BME280;2772;42.700;23.304;2023-04-10T04:06:47;95155.50;;;8.62;100.00
5500;BME280;2772;42.700;23.304;2023-04-10T04:09:14;95154.03;;;8.69;100.00
5500;BME280;2772;42.700;23.304;2023-04-10T04:11:40;95155.38;;;8.67;100.00
5500;BME280;2772;42.700;23.304;2023-04-10T04:14:07;95163.69;;;8.79;100.00
5500;BME280;2772;42.700;23.304;2023-04-10T04:16:35;95164.75;;;8.78;100.00
5500;BME280;2772;42.700;23.304;2023-04-10T04:19:02;95157.63;;;8.60;100.00
5500;BME280;2772;42.700;23.304;2023-04-10T04:21:28;95156.47;;;8.79;100.00
5500;BME280;2772;42.700;23.304;2023-04-10T04:23:55;95155.78;;;8.74;100.00
5500;BME280;2772;42.700;23.304;2023-04-10T04:26:22;95156.09;;;8.72;100.00
5500;BME280;2772;42.700;23.304;2023-04-10T04:28:49;95155.88;;;8.69;100.00
5500;BME280;2772;42.700;23.304;2023-04-10T04:31:16;95161.78;;;8.79;100.00
5500;BME280;2772;42.700;23.304;2023-04-10T04:33:44;95158.16;;;8.89;100.00
5500;BME280;2772;42.700;23.304;2023-04-10T04:36:10;95162.59;;;8.93;100.00
5500;BME280;2772;42.700;23.304;2023-04-10T04:38:37;95162.22;;;9.00;100.00
5500;BME280;2772;42.700;23.304;2023-04-10T04:41:04;95172.16;;;9.08;100.00
5500;BME280;2772;42.700;23.304;2023-04-10T04:43:31;95172.34;;;9.11;100.00
5500;BME280;2772;42.700;23.304;2023-04-10T04:45:57;95171.97;;;9.18;100.00
5500;BME280;2772;42.700;23.304;2023-04-10T04:48:24;95171.84;;;9.23;100.00
5500;BME280;2772;42.700;23.304;2023-04-10T04:50:52;95171.25;;;9.12;100.00
5500;BME280;2772;42.700;23.304;2023-04-10T04:53:19;95181.50;;;9.19;100.00
5500;BME280;2772;42.700;23.304;2023-04-10T04:55:46;95182.47;;;9.23;100.00
5500;BME280;2772;42.700;23.304;2023-04-10T04:58:12;95183.47;;;9.27;100.00
5500;BME280;2772;42.700;23.304;2023-04-10T05:00:39;95191.34;;;9.32;100.00
5500;BME280;2772;42.700;23.304;2023-04-10T05:03:06;95185.44;;;9.35;100.00
5500;BME280;2772;42.700;23.304;2023-04-10T05:05:32;95191.34;;;9.45;100.00
5500;BME280;2772;42.700;23.304;2023-04-10T05:08:01;95191.53;;;9.49;100.00
5500;BME280;2772;42.700;23.304;2023-04-10T05:10:27;95191.84;;;9.47;100.00
5500;BME280;2772;42.700;23.304;2023-04-10T05:12:54;95199.72;;;9.39;100.00
5500;BME280;2772;42.700;23.304;2023-04-10T05:15:21;95192.22;;;9.41;100.00
5500;BME280;2772;42.700;23.304;2023-04-10T05:17:48;95202.56;;;9.56;100.00
5500;BME280;2772;42.700;23.304;2023-04-10T05:20:15;95202.94;;;9.49;100.00
5500;BME280;2772;42.700;23.304;2023-04-10T05:22:42;95194.47;;;9.61;100.00
5500;BME280;2772;42.700;23.304;2023-04-10T05:25:10;95199.00;;;9.74;100.00
5500;BME280;2772;42.700;23.304;2023-04-10T05:27:37;95203.13;;;9.80;100.00
5500;BME280;2772;42.700;23.304;2023-04-10T05:30:04;95197.66;;;9.85;100.00
5500;BME280;2772;42.700;23.304;2023-04-10T05:32:31;95199.47;;;9.90;100.00
5500;BME280;2772;42.700;23.304;2023-04-10T05:34:58;95197.97;;;9.97;100.00
5500;BME280;2772;42.700;23.304;2023-04-10T05:37:25;95196.06;;;9.98;100.00
5500;BME280;2772;42.700;23.304;2023-04-10T05:39:51;95208.09;;;9.95;100.00
5500;BME280;2772;42.700;23.304;2023-04-10T05:42:19;95199.16;;;9.91;100.00
5500;BME280;2772;42.700;23.304;2023-04-10T05:44:46;95204.78;;;9.76;100.00
5500;BME280;2772;42.700;23.304;2023-04-10T05:47:13;95200.81;;;9.87;100.00
5500;BME280;2772;42.700;23.304;2023-04-10T05:49:39;95202.63;;;9.78;100.00
5500;BME280;2772;42.700;23.304;2023-04-10T05:52:06;95199.56;;;9.85;100.00
5500;BME280;2772;42.700;23.304;2023-04-10T05:54:33;95209.41;;;9.84;100.00
5500;BME280;2772;42.700;23.304;2023-04-10T05:56:59;95205.06;;;9.88;100.00
5500;BME280;2772;42.700;23.304;2023-04-10T05:59:29;95212.75;;;9.76;100.00
5500;BME280;2772;42.700;23.304;2023-04-10T06:01:56;95213.13;;;9.97;100.00
5500;BME280;2772;42.700;23.304;2023-04-10T06:04:22;95214.13;;;10.01;100.00
5500;BME280;2772;42.700;23.304;2023-04-10T06:06:49;95224.56;;;10.11;100.00
5500;BME280;2772;42.700;23.304;2023-04-10T06:09:16;95217.38;;;10.11;100.00
5500;BME280;2772;42.700;23.304;2023-04-10T06:11:43;95223.53;;;10.20;100.00
5500;BME280;2772;42.700;23.304;2023-04-10T06:14:10;95219.44;;;10.36;100.00
5500;BME280;2772;42.700;23.304;2023-04-10T06:16:38;95221.41;;;10.44;100.00
5500;BME280;2772;42.700;23.304;2023-04-10T06:19:04;95206.44;;;10.57;100.00
5500;BME280;2772;42.700;23.304;2023-04-10T06:21:31;95204.31;;;10.67;100.00
5500;BME280;2772;42.700;23.304;2023-04-10T06:23:58;95202.38;;;10.81;100.00
5500;BME280;2772;42.700;23.304;2023-04-10T06:26:25;95193.25;;;11.04;100.00
5500;BME280;2772;42.700;23.304;2023-04-10T06:28:52;95204.22;;;11.03;100.00
5500;BME280;2772;42.700;23.304;2023-04-10T06:31:19;95200.97;;;11.14;100.00
5500;BME280;2772;42.700;23.304;2023-04-10T06:33:49;95205.38;;;11.19;100.00
5500;BME280;2772;42.700;23.304;2023-04-10T06:36:15;95200.22;;;11.22;100.00
5500;BME280;2772;42.700;23.304;2023-04-10T06:38:42;95208.75;;;11.33;100.00
5500;BME280;2772;42.700;23.304;2023-04-10T06:41:09;95212.53;;;11.41;100.00
5500;BME280;2772;42.700;23.304;2023-04-10T06:43:38;95214.75;;;11.47;100.00
5500;BME280;2772;42.700;23.304;2023-04-10T06:46:05;95217.56;;;11.51;100.00
5500;BME280;2772;42.700;23.304;2023-04-10T06:48:32;95222.59;;;11.52;100.00
5500;BME280;2772;42.700;23.304;2023-04-10T06:51:00;95223.56;;;11.56;100.00
5500;BME280;2772;42.700;23.304;2023-04-10T06:53:27;95223.91;;;11.63;100.00
5500;BME280;2772;42.700;23.304;2023-04-10T06:55:54;95228.94;;;11.65;100.00
5500;BME280;2772;42.700;23.304;2023-04-10T06:58:21;95225.69;;;11.76;100.00
5500;BME280;2772;42.700;23.304;2023-04-10T07:00:48;95233.06;;;11.79;100.00
5500;BME280;2772;42.700;23.304;2023-04-10T07:03:15;95234.94;;;11.70;100.00
5500;BME280;2772;42.700;23.304;2023-04-10T07:05:42;95228.34;;;11.76;100.00
5500;BME280;2772;42.700;23.304;2023-04-10T07:08:10;95233.25;;;11.83;100.00
5500;BME280;2772;42.700;23.304;2023-04-10T07:10:36;95227.59;;;11.84;100.00
5500;BME280;2772;42.700;23.304;2023-04-10T07:13:03;95223.22;;;11.97;100.00
5500;BME280;2772;42.700;23.304;2023-04-10T07:15:30;95232.97;;;12.01;100.00
5500;BME280;2772;42.700;23.304;2023-04-10T07:17:57;95226.38;;;11.99;100.00
5500;BME280;2772;42.700;23.304;2023-04-10T07:20:23;95233.44;;;12.03;100.00
5500;BME280;2772;42.700;23.304;2023-04-10T07:22:50;95236.56;;;12.05;100.00
5500;BME280;2772;42.700;23.304;2023-04-10T07:25:18;95233.00;;;12.10;100.00
5500;BME280;2772;42.700;23.304;2023-04-10T07:27:45;95237.84;;;12.16;100.00
5500;BME280;2772;42.700;23.304;2023-04-10T07:30:12;95235.34;;;12.11;100.00
5500;BME280;2772;42.700;23.304;2023-04-10T07:32:39;95244.13;;;12.03;100.00
5500;BME280;2772;42.700;23.304;2023-04-10T07:35:07;95244.28;;;11.98;100.00
5500;BME280;2772;42.700;23.304;2023-04-10T07:37:34;95240.03;;;11.97;100.00
5500;BME280;2772;42.700;23.304;2023-04-10T07:40:00;95241.59;;;11.98;100.00
5500;BME280;2772;42.700;23.304;2023-04-10T07:42:29;95242.53;;;11.94;100.00
5500;BME280;2772;42.700;23.304;2023-04-10T07:44:56;95238.16;;;12.06;100.00
5500;BME280;2772;42.700;23.304;2023-04-10T07:47:22;95237.69;;;12.21;100.00
5500;BME280;2772;42.700;23.304;2023-04-10T07:49:49;95241.47;;;12.29;100.00
5500;BME280;2772;42.700;23.304;2023-04-10T07:52:16;95238.81;;;12.46;99.43
5500;BME280;2772;42.700;23.304;2023-04-10T07:54:43;95238.03;;;12.54;98.29
5500;BME280;2772;42.700;23.304;2023-04-10T07:57:10;95242.59;;;12.70;97.72
5500;BME280;2772;42.700;23.304;2023-04-10T07:59:38;95240.53;;;12.76;95.84
5500;BME280;2772;42.700;23.304;2023-04-10T08:02:05;95240.53;;;12.59;94.74
5500;BME280;2772;42.700;23.304;2023-04-10T08:04:32;95237.38;;;12.74;96.57
5500;BME280;2772;42.700;23.304;2023-04-10T08:06:59;95222.78;;;12.80;97.83
5500;BME280;2772;42.700;23.304;2023-04-10T08:09:26;95230.13;;;12.92;99.07
5500;BME280;2772;42.700;23.304;2023-04-10T08:11:52;95223.19;;;12.99;96.49
5500;BME280;2772;42.700;23.304;2023-04-10T08:14:19;95231.22;;;12.99;96.17
5500;BME280;2772;42.700;23.304;2023-04-10T08:16:47;95229.31;;;13.17;94.85
5500;BME280;2772;42.700;23.304;2023-04-10T08:19:14;95230.16;;;13.00;92.49
5500;BME280;2772;42.700;23.304;2023-04-10T08:21:41;95227.47;;;12.92;92.42
5500;BME280;2772;42.700;23.304;2023-04-10T08:24:07;95228.09;;;13.06;93.15
5500;BME280;2772;42.700;23.304;2023-04-10T08:26:34;95228.88;;;13.06;89.66
5500;BME280;2772;42.700;23.304;2023-04-10T08:29:01;95229.81;;;13.10;88.50
5500;BME280;2772;42.700;23.304;2023-04-10T08:31:28;95226.97;;;13.15;90.20
5500;BME280;2772;42.700;23.304;2023-04-10T08:33:56;95228.03;;;13.31;89.66
5500;BME280;2772;42.700;23.304;2023-04-10T08:36:23;95234.88;;;13.49;89.33
5500;BME280;2772;42.700;23.304;2023-04-10T08:38:51;95231.22;;;13.54;87.93
5500;BME280;2772;42.700;23.304;2023-04-10T08:41:18;95229.34;;;13.63;87.03
5500;BME280;2772;42.700;23.304;2023-04-10T08:43:45;95226.66;;;13.63;85.47
5500;BME280;2772;42.700;23.304;2023-04-10T08:46:14;95223.66;;;13.64;84.25
5500;BME280;2772;42.700;23.304;2023-04-10T08:48:45;95224.25;;;13.70;86.03
5500;BME280;2772;42.700;23.304;2023-04-10T08:51:16;95211.66;;;13.70;84.36
5500;BME280;2772;42.700;23.304;2023-04-10T08:53:44;95220.69;;;13.57;83.92
5500;BME280;2772;42.700;23.304;2023-04-10T08:56:15;95223.44;;;13.69;83.50
5500;BME280;2772;42.700;23.304;2023-04-10T08:58:43;95226.56;;;13.80;82.32
5500;BME280;2772;42.700;23.304;2023-04-10T09:01:10;95217.81;;;13.91;81.17
5500;BME280;2772;42.700;23.304;2023-04-10T09:03:37;95216.91;;;13.87;80.51
5500;BME280;2772;42.700;23.304;2023-04-10T09:06:04;95207.84;;;13.80;80.23
5500;BME280;2772;42.700;23.304;2023-04-10T09:08:32;95211.78;;;13.74;79.78
5500;BME280;2772;42.700;23.304;2023-04-10T09:10:59;95213.31;;;13.83;80.92
5500;BME280;2772;42.700;23.304;2023-04-10T09:13:36;95196.94;;;14.05;80.34
5500;BME280;2772;42.700;23.304;2023-04-10T09:16:04;95206.34;;;14.11;78.10
5500;BME280;2772;42.700;23.304;2023-04-10T09:18:42;95202.03;;;13.98;74.48
5500;BME280;2772;42.700;23.304;2023-04-10T09:21:09;95206.94;;;13.96;75.90
5500;BME280;2772;42.700;23.304;2023-04-10T09:23:37;95198.53;;;14.06;75.76
5500;BME280;2772;42.700;23.304;2023-04-10T09:26:21;95200.38;;;13.85;74.94
5500;BME280;2772;42.700;23.304;2023-04-10T09:28:59;95207.03;;;13.79;75.53
5500;BME280;2772;42.700;23.304;2023-04-10T09:31:31;95194.31;;;13.47;76.37
5500;BME280;2772;42.700;23.304;2023-04-10T09:34:12;95202.13;;;13.52;78.12
5500;BME280;2772;42.700;23.304;2023-04-10T09:36:39;95191.97;;;13.37;77.45
5500;BME280;2772;42.700;23.304;2023-04-10T09:39:11;95196.59;;;13.57;77.50
5500;BME280;2772;42.700;23.304;2023-04-10T09:41:48;95190.53;;;13.40;75.63
5500;BME280;2772;42.700;23.304;2023-04-10T09:44:17;95188.94;;;13.47;78.14
5500;BME280;2772;42.700;23.304;2023-04-10T09:46:45;95198.34;;;13.53;77.73
5500;BME280;2772;42.700;23.304;2023-04-10T09:49:13;95189.53;;;13.53;75.47
5500;BME280;2772;42.700;23.304;2023-04-10T09:51:40;95189.44;;;13.70;73.88
5500;BME280;2772;42.700;23.304;2023-04-10T09:54:07;95197.34;;;13.66;74.21
5500;BME280;2772;42.700;23.304;2023-04-10T09:56:35;95194.22;;;13.85;75.28
5500;BME280;2772;42.700;23.304;2023-04-10T09:59:05;95188.56;;;13.86;72.38
5500;BME280;2772;42.700;23.304;2023-04-10T10:01:32;95190.75;;;13.64;71.54
5500;BME280;2772;42.700;23.304;2023-04-10T10:04:01;95194.44;;;13.80;72.47
5500;BME280;2772;42.700;23.304;2023-04-10T10:06:29;95192.81;;;13.87;71.09
5500;BME280;2772;42.700;23.304;2023-04-10T10:09:01;95194.44;;;14.00;69.94
5500;BME280;2772;42.700;23.304;2023-04-10T10:11:29;95182.19;;;14.20;71.19
5500;BME280;2772;42.700;23.304;2023-04-10T10:14:02;95180.91;;;14.47;70.24
5500;BME280;2772;42.700;23.304;2023-04-10T10:16:33;95175.47;;;14.55;66.90
5500;BME280;2772;42.700;23.304;2023-04-10T10:19:07;95171.16;;;14.63;66.27
5500;BME280;2772;42.700;23.304;2023-04-10T10:21:35;95166.13;;;14.61;66.05
5500;BME280;2772;42.700;23.304;2023-04-10T10:24:06;95158.66;;;14.67;64.92
5500;BME280;2772;42.700;23.304;2023-04-10T10:26:34;95162.00;;;14.64;65.50
5500;BME280;2772;42.700;23.304;2023-04-10T10:29:05;95162.53;;;14.37;64.75
5500;BME280;2772;42.700;23.304;2023-04-10T10:31:35;95163.44;;;13.99;74.19
5500;BME280;2772;42.700;23.304;2023-04-10T10:34:02;95162.41;;;14.12;77.45
5500;BME280;2772;42.700;23.304;2023-04-10T10:36:32;95158.47;;;14.10;78.18
5500;BME280;2772;42.700;23.304;2023-04-10T10:39:09;95157.09;;;13.83;77.49
5500;BME280;2772;42.700;23.304;2023-04-10T10:41:43;95161.72;;;13.74;79.42
5500;BME280;2772;42.700;23.304;2023-04-10T10:44:19;95144.50;;;13.84;78.91
5500;BME280;2772;42.700;23.304;2023-04-10T10:47:00;95146.56;;;13.99;78.00
5500;BME280;2772;42.700;23.304;2023-04-10T10:49:52;95141.16;;;14.07;75.44
5500;BME280;2772;42.700;23.304;2023-04-10T10:52:43;95150.19;;;14.03;74.50
5500;BME280;2772;42.700;23.304;2023-04-10T10:55:31;95141.63;;;14.09;70.00
5500;BME280;2772;42.700;23.304;2023-04-10T10:58:03;95130.50;;;13.99;67.98
5500;BME280;2772;42.700;23.304;2023-04-10T11:01:06;95138.81;;;13.85;67.17
5500;BME280;2772;42.700;23.304;2023-04-10T11:03:33;95129.41;;;14.20;67.32
5500;BME280;2772;42.700;23.304;2023-04-10T11:06:01;95129.03;;;14.30;64.76
5500;BME280;2772;42.700;23.304;2023-04-10T11:08:39;95113.06;;;14.55;64.99
5500;BME280;2772;42.700;23.304;2023-04-10T11:11:09;95108.06;;;14.77;63.07
5500;BME280;2772;42.700;23.304;2023-04-10T11:13:38;95103.09;;;14.88;61.56
5500;BME280;2772;42.700;23.304;2023-04-10T11:16:07;95104.31;;;15.02;59.92
5500;BME280;2772;42.700;23.304;2023-04-10T11:19:00;95104.66;;;15.01;64.14
5500;BME280;2772;42.700;23.304;2023-04-10T11:21:27;95114.38;;;15.05;67.70
5500;BME280;2772;42.700;23.304;2023-04-10T11:24:03;95104.06;;;14.83;70.23
5500;BME280;2772;42.700;23.304;2023-04-10T11:26:39;95094.34;;;14.79;68.87
5500;BME280;2772;42.700;23.304;2023-04-10T11:29:32;95104.34;;;14.58;65.92
5500;BME280;2772;42.700;23.304;2023-04-10T11:32:01;95110.22;;;14.39;65.04
5500;BME280;2772;42.700;23.304;2023-04-10T11:34:28;95116.59;;;14.05;66.04
5500;BME280;2772;42.700;23.304;2023-04-10T11:36:58;95114.19;;;13.71;69.07
5500;BME280;2772;42.700;23.304;2023-04-10T11:39:28;95104.41;;;13.46;70.13
5500;BME280;2772;42.700;23.304;2023-04-10T11:41:54;95106.00;;;13.47;70.41
5500;BME280;2772;42.700;23.304;2023-04-10T11:44:32;95111.50;;;13.71;71.24
5500;BME280;2772;42.700;23.304;2023-04-10T11:47:01;95109.63;;;13.72;71.45
5500;BME280;2772;42.700;23.304;2023-04-10T11:49:30;95117.13;;;13.78;71.91
5500;BME280;2772;42.700;23.304;2023-04-10T11:51:57;95105.38;;;13.91;72.67
5500;BME280;2772;42.700;23.304;2023-04-10T11:54:25;95109.03;;;14.07;72.33
5500;BME280;2772;42.700;23.304;2023-04-10T11:56:57;95107.84;;;14.17;71.56
5500;BME280;2772;42.700;23.304;2023-04-10T11:59:24;95095.97;;;14.26;72.06
5500;BME280;2772;42.700;23.304;2023-04-10T12:01:52;95083.88;;;14.20;73.37
5500;BME280;2772;42.700;23.304;2023-04-10T12:04:22;95091.38;;;14.27;74.28
5500;BME280;2772;42.700;23.304;2023-04-10T12:06:50;95087.41;;;14.12;75.88
5500;BME280;2772;42.700;23.304;2023-04-10T12:09:18;95084.72;;;14.12;77.26
5500;BME280;2772;42.700;23.304;2023-04-10T12:11:50;95087.09;;;13.93;79.26
5500;BME280;2772;42.700;23.304;2023-04-10T12:14:18;95091.75;;;13.84;81.86
5500;BME280;2772;42.700;23.304;2023-04-10T12:16:45;95094.25;;;13.60;82.78
5500;BME280;2772;42.700;23.304;2023-04-10T12:19:13;95093.03;;;13.29;84.93
5500;BME280;2772;42.700;23.304;2023-04-10T12:21:44;95109.25;;;12.77;93.37
5500;BME280;2772;42.700;23.304;2023-04-10T12:24:11;95111.97;;;12.69;100.00
5500;BME280;2772;42.700;23.304;2023-04-10T12:26:38;95112.53;;;12.28;100.00
5500;BME280;2772;42.700;23.304;2023-04-10T12:29:12;95118.97;;;12.10;100.00
5500;BME280;2772;42.700;23.304;2023-04-10T12:31:39;95113.78;;;11.80;100.00
5500;BME280;2772;42.700;23.304;2023-04-10T12:34:06;95121.78;;;11.71;100.00
5500;BME280;2772;42.700;23.304;2023-04-10T12:36:34;95124.19;;;11.25;100.00
5500;BME280;2772;42.700;23.304;2023-04-10T12:39:03;95129.28;;;11.04;100.00
5500;BME280;2772;42.700;23.304;2023-04-10T12:41:32;95135.91;;;10.76;100.00
5500;BME280;2772;42.700;23.304;2023-04-10T12:44:06;95145.31;;;10.74;100.00
5500;BME280;2772;42.700;23.304;2023-04-10T12:46:33;95131.50;;;10.80;100.00
5500;BME280;2772;42.700;23.304;2023-04-10T12:49:08;95109.63;;;10.92;100.00
5500;BME280;2772;42.700;23.304;2023-04-10T12:51:44;95105.78;;;11.06;100.00
5500;BME280;2772;42.700;23.304;2023-04-10T12:54:27;95092.81;;;11.22;100.00
5500;BME280;2772;42.700;23.304;2023-04-10T12:56:54;95091.09;;;11.26;100.00
5500;BME280;2772;42.700;23.304;2023-04-10T12:59:22;95093.78;;;11.35;100.00
5500;BME280;2772;42.700;23.304;2023-04-10T13:01:48;95086.78;;;11.64;100.00
5500;BME280;2772;42.700;23.304;2023-04-10T13:04:15;95076.09;;;11.90;100.00
5500;BME280;2772;42.700;23.304;2023-04-10T13:06:42;95075.97;;;12.03;100.00
5500;BME280;2772;42.700;23.304;2023-04-10T13:09:11;95078.28;;;12.22;100.00
5500;BME280;2772;42.700;23.304;2023-04-10T13:11:39;95077.06;;;12.11;100.00
5500;BME280;2772;42.700;23.304;2023-04-10T13:14:06;95074.34;;;12.36;100.00
5500;BME280;2772;42.700;23.304;2023-04-10T13:16:33;95069.72;;;12.54;100.00